Time;durP1;ratioP1;P1;durP2;ratioP2;P2;SDS_P1;SDS_P2;PMS_P1;PMS_P2;Temp;Humidity;BMP_temperature;BMP_pressure;BME280_temperature;BME280_humidity;BME280_pressure;Samples;Min_cycle;Max_cycle;Signal;HPM_P1;HPM_P2
2022/04/14 00:00:05;;;;;;;27.95;12.07;;;11.10;99.90;;;;;;5094782;28;20035;-81
2022/04/14 00:02:30;;;;;;;12.57;9.10;;;11.00;99.90;;;;;;5104000;28;20446;-85
2022/04/14 00:04:56;;;;;;;14.45;10.50;;;11.00;99.90;;;;;;5104307;27;20118;-82
2022/04/14 00:07:22;;;;;;;23.38;11.65;;;11.00;99.90;;;;;;5108656;28;20043;-84
2022/04/14 00:09:48;;;;;;;17.33;10.25;;;11.00;99.90;;;;;;5103591;28;20519;-83
2022/04/14 00:12:14;;;;;;;12.25;10.48;;;11.00;99.90;;;;;;5101212;27;20032;-82
2022/04/14 00:14:39;;;;;;;16.20;11.00;;;11.10;99.90;;;;;;5103411;28;20055;-83
2022/04/14 00:17:05;;;;;;;19.00;11.50;;;11.00;99.90;;;;;;5103537;28;20087;-84
2022/04/14 00:19:31;;;;;;;20.40;11.13;;;11.00;99.90;;;;;;5112441;28;20182;-81
2022/04/14 00:21:56;;;;;;;21.60;12.55;;;11.00;99.90;;;;;;5101211;28;20043;-81
2022/04/14 00:24:22;;;;;;;20.88;13.68;;;11.00;99.90;;;;;;5101074;27;20058;-80
2022/04/14 00:26:48;;;;;;;15.80;12.13;;;11.00;99.90;;;;;;5103518;28;20051;-81
2022/04/14 00:29:13;;;;;;;21.63;11.85;;;10.90;99.90;;;;;;5095552;27;20048;-83
2022/04/14 00:31:39;;;;;;;21.98;12.00;;;10.90;99.90;;;;;;5096571;28;20093;-82
2022/04/14 00:34:05;;;;;;;19.75;11.90;;;10.80;99.90;;;;;;5102412;28;20123;-82
2022/04/14 00:36:33;;;;;;;17.88;12.48;;;10.90;99.90;;;;;;5108142;28;20043;-81
2022/04/14 00:38:59;;;;;;;43.85;12.95;;;10.80;99.90;;;;;;5104587;28;20044;-82
2022/04/14 00:41:27;;;;;;;24.40;12.68;;;10.90;99.90;;;;;;5107788;28;20027;-81
2022/04/14 00:43:53;;;;;;;22.35;12.23;;;10.80;99.90;;;;;;5113959;27;20375;-83
2022/04/14 00:46:20;;;;;;;25.75;13.40;;;10.80;99.90;;;;;;5106587;28;20035;-83
2022/04/14 00:48:47;;;;;;;23.65;12.85;;;10.70;99.90;;;;;;5126208;27;20565;-82
2022/04/14 00:51:12;;;;;;;20.90;13.63;;;10.70;99.90;;;;;;5116585;27;20031;-83
2022/04/14 00:53:39;;;;;;;17.60;12.98;;;10.60;99.90;;;;;;5131717;27;20047;-83
2022/04/14 00:56:06;;;;;;;18.42;13.82;;;10.60;99.90;;;;;;5110399;28;20497;-82
2022/04/14 00:58:33;;;;;;;18.90;13.00;;;10.50;99.90;;;;;;5109677;28;20035;-82
2022/04/14 01:00:58;;;;;;;24.45;14.30;;;10.50;99.90;;;;;;5106540;27;20325;-82
2022/04/14 01:03:24;;;;;;;19.33;13.15;;;10.50;99.90;;;;;;5109174;28;20317;-82
2022/04/14 01:05:52;;;;;;;20.95;13.05;;;10.40;99.90;;;;;;5101470;28;20044;-82
2022/04/14 01:08:18;;;;;;;18.10;14.00;;;10.50;99.90;;;;;;5116839;27;20113;-81
2022/04/14 01:10:48;;;;;;;22.70;15.45;;;10.50;99.90;;;;;;5111422;27;20059;-82
2022/04/14 01:13:18;;;;;;;24.15;16.75;;;10.40;99.90;;;;;;5092354;28;20047;-82
2022/04/14 01:15:45;;;;;;;21.75;17.17;;;10.50;99.90;;;;;;5103187;28;20335;-80
2022/04/14 01:18:10;;;;;;;19.50;14.95;;;10.40;99.90;;;;;;5109358;28;20124;-81
2022/04/14 01:20:39;;;;;;;23.05;15.00;;;10.40;99.90;;;;;;5099300;28;20127;-84
2022/04/14 01:23:07;;;;;;;24.80;16.50;;;10.30;99.90;;;;;;5119073;28;20497;-81
2022/04/14 01:25:34;;;;;;;29.45;16.27;;;10.30;99.90;;;;;;5107645;27;20111;-82
2022/04/14 01:28:04;;;;;;;24.33;16.23;;;10.30;99.90;;;;;;5107841;27;20100;-82
2022/04/14 01:30:30;;;;;;;24.65;17.25;;;10.20;99.90;;;;;;5103332;28;20058;-83
2022/04/14 01:32:57;;;;;;;23.25;16.08;;;10.20;99.90;;;;;;5106926;27;20123;-82
2022/04/14 01:35:23;;;;;;;26.77;18.13;;;10.20;99.90;;;;;;5110486;27;20139;-82
2022/04/14 01:37:49;;;;;;;24.05;16.02;;;10.20;99.90;;;;;;5104127;27;20564;-82
2022/04/14 01:40:14;;;;;;;29.20;17.63;;;10.20;99.90;;;;;;5099629;28;20070;-82
2022/04/14 01:42:40;;;;;;;20.63;16.63;;;10.10;99.90;;;;;;5101444;27;20131;-82
2022/04/14 01:45:09;;;;;;;22.10;16.35;;;10.00;99.90;;;;;;5108319;28;20040;-81
2022/04/14 01:47:45;;;;;;;26.73;16.67;;;10.00;99.90;;;;;;5111529;27;20398;-82
2022/04/14 01:50:13;;;;;;;24.38;17.92;;;10.00;99.90;;;;;;5103305;28;20035;-83
2022/04/14 01:52:39;;;;;;;27.45;18.02;;;10.00;99.90;;;;;;5106945;28;20511;-83
2022/04/14 01:55:06;;;;;;;31.35;19.65;;;10.00;99.90;;;;;;5097459;28;20065;-82
2022/04/14 01:57:32;;;;;;;30.85;19.50;;;9.90;99.90;;;;;;5104112;28;20058;-82
2022/04/14 01:59:59;;;;;;;31.05;18.73;;;9.90;99.90;;;;;;5108719;28;20040;-83
2022/04/14 02:02:25;;;;;;;24.02;16.52;;;9.80;99.90;;;;;;5099626;27;20085;-83
2022/04/14 02:04:51;;;;;;;30.88;19.80;;;9.70;99.90;;;;;;5095942;28;20478;-82
2022/04/14 02:07:18;;;;;;;25.15;18.15;;;9.70;99.90;;;;;;5100446;28;20045;-82
2022/04/14 02:09:43;;;;;;;24.45;17.65;;;9.60;99.90;;;;;;5103887;28;20036;-82
2022/04/14 02:12:11;;;;;;;27.85;18.83;;;9.70;99.90;;;;;;5096706;28;20443;-82
2022/04/14 02:14:37;;;;;;;29.80;19.88;;;9.60;99.90;;;;;;5102627;28;20103;-82
2022/04/14 02:17:03;;;;;;;26.45;20.55;;;9.60;99.90;;;;;;5108818;27;20066;-81
2022/04/14 02:19:28;;;;;;;26.52;18.45;;;9.60;99.90;;;;;;5098852;28;20494;-81
2022/04/14 02:21:58;;;;;;;24.05;20.20;;;9.50;99.90;;;;;;5099880;28;20490;-82
2022/04/14 02:24:23;;;;;;;25.90;18.43;;;9.60;99.90;;;;;;5107277;28;20406;-81
2022/04/14 02:26:49;;;;;;;23.92;18.27;;;9.50;99.90;;;;;;5106198;28;20055;-81
2022/04/14 02:29:15;;;;;;;30.83;19.45;;;9.50;99.90;;;;;;5108012;28;20044;-81
2022/04/14 02:31:40;;;;;;;31.23;19.63;;;9.50;99.90;;;;;;5105018;28;20044;-82
2022/04/14 02:34:06;;;;;;;25.92;21.35;;;9.40;99.90;;;;;;5109645;28;20048;-82
2022/04/14 02:36:31;;;;;;;31.35;22.67;;;9.40;99.90;;;;;;5109092;28;20387;-81
2022/04/14 02:38:57;;;;;;;29.73;20.17;;;9.40;99.90;;;;;;5105055;28;20112;-81
2022/04/14 02:41:22;;;;;;;30.42;22.88;;;9.30;99.90;;;;;;5098469;28;20052;-82
2022/04/14 02:43:49;;;;;;;31.42;20.40;;;9.30;99.90;;;;;;5105542;27;20040;-81
2022/04/14 02:46:15;;;;;;;31.35;20.05;;;9.20;99.90;;;;;;5100778;27;20454;-82
2022/04/14 02:48:41;;;;;;;55.47;25.30;;;9.30;99.90;;;;;;5099033;28;20040;-82
2022/04/14 02:51:06;;;;;;;31.40;20.73;;;9.20;99.90;;;;;;5105493;27;20040;-82
2022/04/14 02:53:32;;;;;;;30.55;21.67;;;9.30;99.90;;;;;;5084603;28;20040;-82
2022/04/14 02:55:58;;;;;;;29.88;21.10;;;9.20;99.90;;;;;;5097635;28;20863;-82
2022/04/14 02:58:24;;;;;;;27.25;21.45;;;9.20;99.90;;;;;;5107593;28;20096;-82
2022/04/14 03:00:50;;;;;;;26.20;20.20;;;9.20;99.90;;;;;;5111661;27;20043;-81
2022/04/14 03:03:16;;;;;;;41.35;23.60;;;9.10;99.90;;;;;;5103281;28;20047;-82
2022/04/14 03:05:42;;;;;;;29.33;21.08;;;9.10;99.90;;;;;;5115784;27;20137;-82
2022/04/14 03:08:08;;;;;;;34.17;22.40;;;9.10;99.90;;;;;;5105057;28;20119;-82
2022/04/14 03:10:33;;;;;;;31.48;22.85;;;9.00;99.90;;;;;;5096803;28;20040;-82
2022/04/14 03:12:59;;;;;;;33.05;24.33;;;9.00;99.90;;;;;;5112005;27;20501;-82
2022/04/14 03:15:25;;;;;;;31.25;23.02;;;9.00;99.90;;;;;;5103219;28;20122;-81
2022/04/14 03:17:50;;;;;;;34.33;23.40;;;9.00;99.90;;;;;;5102109;27;21123;-81
2022/04/14 03:20:16;;;;;;;34.05;26.55;;;8.90;99.90;;;;;;5105661;28;20044;-81
2022/04/14 03:22:42;;;;;;;32.60;24.17;;;9.00;99.90;;;;;;5104110;28;20028;-81
2022/04/14 03:25:11;;;;;;;34.60;24.45;;;9.00;99.90;;;;;;5096072;28;20409;-82
2022/04/14 03:27:37;;;;;;;33.90;22.33;;;9.00;99.90;;;;;;5105682;28;20048;-82
2022/04/14 03:30:04;;;;;;;31.85;22.40;;;8.90;99.90;;;;;;5115523;27;20104;-81
2022/04/14 03:32:30;;;;;;;33.53;24.25;;;8.90;99.90;;;;;;5110563;27;20039;-81
2022/04/14 03:34:55;;;;;;;35.50;22.83;;;8.90;99.90;;;;;;5121433;27;20016;-82
2022/04/14 03:37:21;;;;;;;36.35;23.95;;;8.90;99.90;;;;;;5102901;28;20089;-82
2022/04/14 03:39:47;;;;;;;33.38;22.75;;;8.80;99.90;;;;;;5100936;28;20192;-82
2022/04/14 03:42:13;;;;;;;38.03;24.95;;;8.80;99.90;;;;;;5104308;28;20127;-82
2022/04/14 03:44:39;;;;;;;30.60;22.63;;;8.70;99.90;;;;;;5081081;28;20040;-81
2022/04/14 03:47:04;;;;;;;35.63;23.13;;;8.70;99.90;;;;;;5116294;28;20102;-82
2022/04/14 03:49:30;;;;;;;32.10;22.02;;;8.70;99.90;;;;;;5114249;28;20096;-82
2022/04/14 03:51:56;;;;;;;29.50;22.77;;;8.70;99.90;;;;;;5106394;28;20054;-81
2022/04/14 03:54:21;;;;;;;34.22;22.90;;;8.60;99.90;;;;;;5105544;28;20056;-81
2022/04/14 03:56:48;;;;;;;41.55;27.95;;;8.60;99.90;;;;;;5102571;28;20156;-82
2022/04/14 03:59:15;;;;;;;36.17;25.88;;;8.60;99.90;;;;;;5122640;28;20035;-81
2022/04/14 04:01:41;;;;;;;38.25;26.75;;;8.70;99.90;;;;;;5113072;28;20032;-81
2022/04/14 04:04:06;;;;;;;31.45;24.08;;;8.60;99.90;;;;;;5119761;28;20046;-82
2022/04/14 04:06:32;;;;;;;42.45;25.52;;;8.60;99.90;;;;;;5100153;28;20044;-82
2022/04/14 04:08:58;;;;;;;39.20;27.02;;;8.60;99.90;;;;;;5104261;28;20486;-82
2022/04/14 04:11:23;;;;;;;37.63;25.52;;;8.50;99.90;;;;;;5106415;28;20051;-82
2022/04/14 04:13:49;;;;;;;38.95;26.67;;;8.50;99.90;;;;;;5094408;28;20036;-81
2022/04/14 04:16:14;;;;;;;40.90;28.65;;;8.40;99.90;;;;;;5096777;28;20047;-82
2022/04/14 04:18:40;;;;;;;39.60;25.88;;;8.50;99.90;;;;;;5099718;28;20044;-82
2022/04/14 04:21:06;;;;;;;35.88;26.23;;;8.50;99.90;;;;;;5118512;28;20050;-82
2022/04/14 04:23:31;;;;;;;39.10;26.88;;;8.40;99.90;;;;;;5094632;28;20473;-81
2022/04/14 04:25:57;;;;;;;34.47;24.17;;;8.40;99.90;;;;;;5091379;28;20139;-82
2022/04/14 04:28:30;;;;;;;31.65;24.92;;;8.40;99.90;;;;;;5103406;28;20105;-81
2022/04/14 04:30:56;;;;;;;37.10;26.33;;;8.30;99.90;;;;;;5094370;28;20756;-80
2022/04/14 04:33:22;;;;;;;37.50;25.73;;;8.30;99.90;;;;;;5104359;28;20067;-80
2022/04/14 04:35:52;;;;;;;37.72;25.33;;;8.20;99.90;;;;;;5107015;28;20035;-82
2022/04/14 04:38:19;;;;;;;47.78;28.70;;;8.30;99.90;;;;;;5108390;28;20046;-82
2022/04/14 04:40:44;;;;;;;42.65;29.08;;;8.30;99.90;;;;;;5101446;28;20048;-80
2022/04/14 04:43:10;;;;;;;47.85;28.95;;;8.30;99.90;;;;;;5100340;27;20040;-80
2022/04/14 04:45:36;;;;;;;36.40;27.02;;;8.30;99.90;;;;;;5105614;27;20051;-80
2022/04/14 04:48:04;;;;;;;38.22;27.50;;;8.30;99.90;;;;;;5112112;28;20127;-80
2022/04/14 04:50:30;;;;;;;40.40;26.33;;;8.30;99.90;;;;;;5097278;28;20031;-81
2022/04/14 04:52:56;;;;;;;36.22;25.67;;;8.20;99.90;;;;;;5109383;28;20049;-82
2022/04/14 04:55:21;;;;;;;39.97;25.80;;;8.20;99.90;;;;;;5106296;28;20036;-81
2022/04/14 04:57:47;;;;;;;35.70;26.05;;;8.30;99.90;;;;;;5098892;27;20502;-81
2022/04/14 05:00:13;;;;;;;37.92;26.48;;;8.30;99.90;;;;;;5116578;27;20106;-80
2022/04/14 05:02:39;;;;;;;35.40;25.10;;;8.20;99.90;;;;;;5117996;27;20114;-81
2022/04/14 05:05:05;;;;;;;40.92;27.90;;;8.30;99.90;;;;;;5133498;27;20078;-80
2022/04/14 05:07:31;;;;;;;46.25;26.42;;;8.30;99.90;;;;;;5130196;27;20035;-79
2022/04/14 05:09:56;;;;;;;42.35;29.65;;;8.30;99.90;;;;;;5093992;27;20050;-80
2022/04/14 05:12:22;;;;;;;44.67;30.40;;;8.40;99.90;;;;;;5091942;28;20051;-81
2022/04/14 05:14:47;;;;;;;49.03;33.80;;;8.50;99.90;;;;;;5091472;28;20511;-80
2022/04/14 05:17:13;;;;;;;52.20;33.75;;;8.60;99.90;;;;;;5092046;28;20047;-81
2022/04/14 05:19:39;;;;;;;49.03;33.42;;;8.80;99.90;;;;;;5110058;28;20046;-80
2022/04/14 05:22:04;;;;;;;41.25;31.95;;;8.90;99.90;;;;;;5103662;27;20367;-81
2022/04/14 05:24:31;;;;;;;53.50;38.08;;;9.10;99.90;;;;;;5099957;27;20087;-81
2022/04/14 05:26:56;;;;;;;57.75;38.75;;;9.30;99.90;;;;;;5091507;28;20116;-81
2022/04/14 05:29:22;;;;;;;64.75;37.53;;;9.60;99.90;;;;;;5102330;28;20052;-80
2022/04/14 05:31:48;;;;;;;49.63;34.83;;;9.60;99.90;;;;;;5110605;27;20131;-82
2022/04/14 05:34:14;;;;;;;50.38;37.22;;;9.70;99.90;;;;;;5112394;28;20490;-80
2022/04/14 05:36:39;;;;;;;52.72;37.25;;;9.90;99.90;;;;;;5098388;28;20056;-80
2022/04/14 05:39:05;;;;;;;49.90;35.92;;;10.00;99.90;;;;;;5090535;28;20405;-81
2022/04/14 05:41:32;;;;;;;54.58;32.80;;;10.30;99.90;;;;;;5101919;28;20054;-80
2022/04/14 05:43:58;;;;;;;48.15;33.47;;;10.10;99.90;;;;;;5090822;28;20120;-81
2022/04/14 05:46:24;;;;;;;43.15;32.08;;;9.90;99.90;;;;;;5091169;28;20124;-82
2022/04/14 05:48:50;;;;;;;39.20;27.77;;;9.80;99.90;;;;;;5089778;28;20565;-80
2022/04/14 05:51:16;;;;;;;43.30;29.60;;;9.90;99.90;;;;;;5108551;27;20113;-84
2022/04/14 05:53:42;;;;;;;42.25;28.42;;;9.60;99.90;;;;;;5090744;27;20127;-81
2022/04/14 05:56:08;;;;;;;35.72;27.17;;;9.60;99.90;;;;;;5097182;28;20043;-81
2022/04/14 05:58:33;;;;;;;40.13;30.38;;;9.90;99.90;;;;;;5106098;28;20052;-82
2022/04/14 06:00:59;;;;;;;42.45;29.35;;;9.80;99.90;;;;;;5105900;28;20509;-83
2022/04/14 06:03:26;;;;;;;44.60;33.67;;;9.90;99.90;;;;;;5102274;28;20039;-82
2022/04/14 06:05:51;;;;;;;40.90;29.95;;;10.00;99.90;;;;;;5102768;28;20546;-82
2022/04/14 06:08:18;;;;;;;38.30;28.73;;;10.00;99.90;;;;;;5093951;28;20127;-81
2022/04/14 06:10:43;;;;;;;51.63;30.40;;;10.30;99.90;;;;;;5094346;27;20046;-82
2022/04/14 06:13:11;;;;;;;41.05;29.98;;;10.20;99.90;;;;;;5090619;28;20032;-81
2022/04/14 06:15:37;;;;;;;44.25;31.88;;;10.40;99.90;;;;;;5091122;28;20482;-84
2022/04/14 06:18:02;;;;;;;46.38;34.75;;;10.40;99.90;;;;;;5090673;28;20043;-83
2022/04/14 06:20:28;;;;;;;52.15;33.97;;;10.50;99.90;;;;;;5111318;27;20049;-82
2022/04/14 06:22:56;;;;;;;57.97;35.47;;;10.40;99.90;;;;;;5106799;27;20035;-83
2022/04/14 06:25:24;;;;;;;43.92;31.50;;;10.80;99.90;;;;;;5094772;28;20062;-82
2022/04/14 06:27:51;;;;;;;52.13;33.72;;;10.70;99.90;;;;;;5122582;27;20102;-80
2022/04/14 06:30:18;;;;;;;43.80;33.92;;;10.80;99.90;;;;;;5098735;27;20085;-81
2022/04/14 06:32:57;;;;;;;43.80;32.58;;;11.10;99.90;;;;;;5073827;28;20052;-82
2022/04/14 06:35:24;;;;;;;47.65;32.63;;;11.20;99.90;;;;;;5103213;28;20047;-83
2022/04/14 06:37:50;;;;;;;45.10;32.38;;;11.30;99.90;;;;;;5089632;28;20044;-84
2022/04/14 06:40:16;;;;;;;40.35;31.52;;;11.20;99.90;;;;;;5091160;28;20053;-84
2022/04/14 06:42:41;;;;;;;42.38;31.48;;;11.40;99.90;;;;;;5106448;28;20551;-83
2022/04/14 06:45:07;;;;;;;40.20;32.08;;;11.30;99.90;;;;;;5091600;28;20060;-82
2022/04/14 06:47:33;;;;;;;40.88;32.45;;;11.30;99.90;;;;;;5112866;27;20036;-83
2022/04/14 06:49:59;;;;;;;39.72;29.05;;;11.40;99.90;;;;;;5097470;28;20555;-83
2022/04/14 06:52:24;;;;;;;39.20;29.35;;;11.60;99.90;;;;;;5103903;28;20061;-82
2022/04/14 06:54:50;;;;;;;44.83;29.17;;;11.80;99.90;;;;;;5103514;28;20084;-84
2022/04/14 06:57:16;;;;;;;35.53;29.65;;;12.40;99.90;;;;;;5101991;27;20048;-83
2022/04/14 06:59:42;;;;;;;40.38;26.48;;;12.90;99.90;;;;;;5110046;27;20035;-83
2022/04/14 07:02:08;;;;;;;35.53;26.95;;;13.30;99.90;;;;;;5104072;27;20481;-84
2022/04/14 07:04:34;;;;;;;32.05;24.92;;;13.70;99.90;;;;;;5093933;27;20560;-84
2022/04/14 07:06:59;;;;;;;34.42;25.05;;;14.20;99.90;;;;;;5088516;28;20133;-82
2022/04/14 07:09:25;;;;;;;31.60;23.23;;;14.30;99.90;;;;;;5088534;28;20406;-82
2022/04/14 07:11:53;;;;;;;33.40;23.27;;;14.10;99.90;;;;;;5100821;28;20044;-83
2022/04/14 07:14:19;;;;;;;40.78;25.95;;;13.50;99.90;;;;;;5110913;28;20039;-83
2022/04/14 07:16:45;;;;;;;28.15;21.15;;;13.10;99.90;;;;;;5104029;28;20055;-83
2022/04/14 07:19:19;;;;;;;31.17;20.98;;;12.80;99.90;;;;;;5095064;27;20059;-81
2022/04/14 07:21:46;;;;;;;32.45;22.20;;;12.70;99.90;;;;;;5090417;28;20040;-82
2022/04/14 07:24:11;;;;;;;31.55;23.17;;;12.80;99.90;;;;;;5103134;28;20039;-86
2022/04/14 07:26:37;;;;;;;29.17;21.15;;;12.80;99.90;;;;;;5108809;28;20093;-82
2022/04/14 07:29:03;;;;;;;26.77;22.33;;;12.90;99.90;;;;;;5107260;27;20047;-83
2022/04/14 07:31:31;;;;;;;27.55;19.40;;;12.90;99.90;;;;;;5107701;28;20049;-82
2022/04/14 07:33:57;;;;;;;28.63;22.52;;;13.00;99.90;;;;;;5093504;28;20044;-82
2022/04/14 07:36:23;;;;;;;28.85;20.73;;;13.00;99.90;;;;;;5093172;28;20477;-85
2022/04/14 07:38:49;;;;;;;28.15;20.67;;;13.00;99.90;;;;;;5101697;28;20108;-84
2022/04/14 07:41:14;;;;;;;27.25;20.08;;;13.30;99.90;;;;;;5105627;28;20028;-85
2022/04/14 07:43:40;;;;;;;28.25;19.45;;;13.20;99.90;;;;;;5093338;28;20036;-81
2022/04/14 07:46:06;;;;;;;23.60;18.88;;;13.30;99.90;;;;;;5089268;28;20135;-81
2022/04/14 07:48:31;;;;;;;24.60;18.15;;;13.40;99.90;;;;;;5088156;28;20047;-72
2022/04/14 07:50:59;;;;;;;22.95;18.98;;;13.60;99.90;;;;;;5088109;28;20043;-77
2022/04/14 07:53:25;;;;;;;28.02;19.90;;;13.80;99.90;;;;;;5096070;28;20402;-77
2022/04/14 07:55:51;;;;;;;22.05;16.42;;;13.90;99.90;;;;;;5100873;28;20051;-79
2022/04/14 07:58:16;;;;;;;23.50;19.13;;;13.60;99.90;;;;;;5090615;28;20032;-77
2022/04/14 08:00:42;;;;;;;21.88;18.27;;;13.80;99.90;;;;;;5099530;28;20065;-78
2022/04/14 08:03:09;;;;;;;33.78;18.98;;;13.80;99.90;;;;;;5109026;27;20567;-77
2022/04/14 08:05:46;;;;;;;29.15;16.80;;;13.80;99.90;;;;;;5106243;28;20047;-77
2022/04/14 08:08:17;;;;;;;21.27;15.85;;;13.70;99.90;;;;;;5105966;28;20099;-78
2022/04/14 08:10:44;;;;;;;19.75;16.95;;;14.00;99.90;;;;;;5089311;28;20067;-77
2022/04/14 08:13:10;;;;;;;22.83;16.40;;;14.10;99.90;;;;;;5102875;28;20409;-72
2022/04/14 08:15:36;;;;;;;18.10;13.75;;;14.10;99.90;;;;;;5107365;27;20126;-78
2022/04/14 08:18:03;;;;;;;18.67;14.60;;;14.20;99.90;;;;;;5118824;27;20078;-77
2022/04/14 08:20:29;;;;;;;24.23;18.73;;;13.90;99.90;;;;;;5108136;27;20468;-77
2022/04/14 08:22:56;;;;;;;20.23;15.93;;;14.30;99.90;;;;;;5108535;27;20039;-78
2022/04/14 08:25:26;;;;;;;22.83;14.15;;;14.40;99.90;;;;;;5109244;28;20052;-76
2022/04/14 08:27:53;;;;;;;21.17;15.85;;;14.50;99.90;;;;;;5100400;28;20047;-79
2022/04/14 08:30:20;;;;;;;27.77;16.02;;;14.50;99.90;;;;;;5101711;27;22072;-79
2022/04/14 08:32:47;;;;;;;22.77;15.80;;;14.70;99.90;;;;;;5108962;27;20043;-75
2022/04/14 08:35:14;;;;;;;22.38;15.63;;;14.80;99.90;;;;;;5076845;27;20501;-78
2022/04/14 08:37:41;;;;;;;19.20;14.27;;;14.90;99.90;;;;;;5097426;27;20035;-78
2022/04/14 08:40:09;;;;;;;17.58;14.88;;;14.70;99.90;;;;;;5091497;28;20075;-77
2022/04/14 08:42:40;;;;;;;19.10;16.08;;;14.80;99.90;;;;;;5092479;28;20040;-77
2022/04/14 08:45:13;;;;;;;18.52;15.05;;;14.90;99.90;;;;;;5092546;28;20719;-74
2022/04/14 08:47:40;;;;;;;16.52;14.30;;;14.80;99.90;;;;;;5099148;27;20468;-74
2022/04/14 08:50:15;;;;;;;20.48;14.85;;;14.80;99.90;;;;;;5109030;28;20169;-76
2022/04/14 08:52:40;;;;;;;20.48;15.68;;;14.90;99.90;;;;;;5091597;28;20047;-76
2022/04/14 08:55:11;;;;;;;19.00;16.02;;;15.10;99.90;;;;;;5093879;28;20472;-76
2022/04/14 08:57:38;;;;;;;16.50;14.10;;;15.20;99.90;;;;;;5099369;27;20047;-76
2022/04/14 09:00:06;;;;;;;16.98;13.32;;;15.00;99.90;;;;;;5104233;27;20039;-74
2022/04/14 09:02:34;;;;;;;17.13;14.43;;;15.20;99.90;;;;;;5121265;27;20713;-76
2022/04/14 09:05:00;;;;;;;19.88;13.55;;;15.20;99.90;;;;;;5124978;27;20112;-78
2022/04/14 09:07:27;;;;;;;18.10;14.90;;;15.20;99.90;;;;;;5115327;27;20051;-77
2022/04/14 09:09:53;;;;;;;16.92;13.30;;;15.20;99.90;;;;;;5115778;28;20040;-78
2022/04/14 09:12:19;;;;;;;19.00;12.98;;;15.40;99.90;;;;;;5111014;27;20044;-78
2022/04/14 09:14:48;;;;;;;11.52;9.23;;;15.50;99.90;;;;;;5112114;28;20086;-76
2022/04/14 09:17:14;;;;;;;11.37;9.47;;;15.50;99.90;;;;;;5095109;27;20058;-80
2022/04/14 09:19:41;;;;;;;13.50;10.30;;;15.40;99.90;;;;;;5090932;28;20040;-81
2022/04/14 09:22:12;;;;;;;10.88;8.10;;;15.40;99.90;;;;;;5098468;27;20127;-79
2022/04/14 09:24:52;;;;;;;11.25;8.77;;;15.40;99.90;;;;;;5098689;28;20035;-80
2022/04/14 09:27:32;;;;;;;11.90;9.23;;;15.30;99.90;;;;;;5116995;27;20126;-80
2022/04/14 09:30:00;;;;;;;11.15;9.02;;;15.20;99.90;;;;;;5090420;28;20130;-81
2022/04/14 09:32:34;;;;;;;14.43;8.38;;;15.30;99.90;;;;;;5111312;27;20455;-84
2022/04/14 09:35:05;;;;;;;12.32;8.07;;;15.50;99.90;;;;;;5108313;28;20044;-85
2022/04/14 09:37:33;;;;;;;11.50;7.68;;;15.60;99.90;;;;;;5102001;27;20486;-80
2022/04/14 09:40:08;;;;;;;11.73;8.55;;;15.60;99.90;;;;;;5109437;28;20049;-83
2022/04/14 09:42:37;;;;;;;9.52;8.10;;;15.40;99.90;;;;;;5112919;28;20043;-82
2022/04/14 09:45:20;;;;;;;9.88;6.20;;;15.50;99.90;;;;;;5109110;28;20103;-82
2022/04/14 09:47:47;;;;;;;12.88;7.38;;;15.40;99.90;;;;;;5110077;28;20127;-81
2022/04/14 09:50:24;;;;;;;13.88;7.97;;;15.50;99.90;;;;;;5110757;28;20379;-83
2022/04/14 09:53:20;;;;;;;10.60;7.45;;;15.60;99.90;;;;;;5100891;27;20047;-83
2022/04/14 09:55:51;;;;;;;12.60;6.95;;;15.70;99.90;;;;;;5113702;27;20082;-82
2022/04/14 09:58:26;;;;;;;9.45;6.82;;;15.90;99.90;;;;;;5115520;27;20082;-82
2022/04/14 10:00:59;;;;;;;14.40;6.85;;;16.00;99.90;;;;;;5092169;28;20036;-83
2022/04/14 10:03:27;;;;;;;8.85;5.95;;;15.80;99.90;;;;;;5092431;28;20044;-81
2022/04/14 10:05:55;;;;;;;11.65;7.15;;;15.90;99.90;;;;;;5106914;27;20375;-81
2022/04/14 10:08:25;;;;;;;9.98;6.15;;;15.90;99.90;;;;;;5099979;28;20092;-82
2022/04/14 10:11:11;;;;;;;9.50;4.93;;;16.10;99.90;;;;;;5093031;28;20040;-81
2022/04/14 10:13:38;;;;;;;8.20;4.95;;;16.00;99.90;;;;;;5091697;28;20827;-82
2022/04/14 10:16:05;;;;;;;7.03;4.53;;;15.60;99.90;;;;;;5090950;28;20047;-82
2022/04/14 10:18:31;;;;;;;6.40;4.05;;;15.70;99.90;;;;;;5104066;28;20075;-82
2022/04/14 10:20:57;;;;;;;6.88;4.97;;;16.10;99.90;;;;;;5086796;28;20060;-82
2022/04/14 10:23:28;;;;;;;8.57;5.35;;;16.20;99.90;;;;;;5096277;28;20036;-83
2022/04/14 10:25:54;;;;;;;15.35;7.55;;;16.30;99.90;;;;;;5113213;27;20117;-81
2022/04/14 10:28:20;;;;;;;6.35;4.13;;;16.20;99.90;;;;;;5105676;27;20517;-83
2022/04/14 10:30:47;;;;;;;6.45;4.35;;;15.80;99.90;;;;;;5095919;27;20516;-82
2022/04/14 10:33:13;;;;;;;4.95;3.90;;;15.80;99.90;;;;;;5090981;28;20058;-80
2022/04/14 10:35:39;;;;;;;6.50;4.05;;;15.70;99.90;;;;;;5091000;28;20486;-80
2022/04/14 10:38:15;;;;;;;5.90;2.80;;;16.00;99.90;;;;;;5105213;27;20095;-81
2022/04/14 10:41:13;;;;;;;4.78;2.47;;;16.40;99.90;;;;;;5110023;28;20027;-83
2022/04/14 10:43:44;;;;;;;12.80;2.90;;;16.50;99.90;;;;;;5092503;28;20054;-82
2022/04/14 10:46:14;;;;;;;5.28;2.40;;;16.60;99.90;;;;;;5095949;28;20067;-80
2022/04/14 10:48:41;;;;;;;7.30;3.08;;;16.40;99.90;;;;;;5079590;28;20036;-83
2022/04/14 10:51:15;;;;;;;3.40;2.47;;;16.60;99.90;;;;;;5072764;28;20048;-81
2022/04/14 10:54:00;;;;;;;6.55;2.75;;;16.90;99.90;;;;;;5089163;28;20124;-77
2022/04/14 10:56:34;;;;;;;3.63;2.33;;;16.40;99.90;;;;;;5104089;27;20058;-82
2022/04/14 10:59:01;;;;;;;5.95;3.20;;;16.20;99.90;;;;;;5096736;28;20039;-81
2022/04/14 11:01:45;;;;;;;8.77;3.85;;;16.20;99.90;;;;;;5114746;27;20048;-79
2022/04/14 11:04:33;;;;;;;6.70;2.88;;;16.40;99.90;;;;;;5110127;27;20093;-80
2022/04/14 11:07:14;;;;;;;6.05;3.20;;;16.60;99.90;;;;;;5115045;27;20658;-81
2022/04/14 11:12:24;;;;;;;7.15;4.32;;;16.70;99.90;;;;;;5091532;28;20044;-82
2022/04/14 11:14:50;;;;;;;10.50;3.50;;;16.90;99.90;;;;;;5093258;28;20039;-82
2022/04/14 11:17:53;;;;;;;7.25;2.92;;;17.10;99.90;;;;;;5102393;28;20044;-83
2022/04/14 11:20:45;;;;;;;9.77;4.35;;;16.70;99.90;;;;;;5107806;27;20527;-84
2022/04/14 11:23:21;;;;;;;4.35;3.08;;;16.50;99.90;;;;;;5130754;27;20043;-83
2022/04/14 11:25:47;;;;;;;11.45;4.75;;;16.40;99.90;;;;;;5129343;27;20446;-83
2022/04/14 11:28:28;;;;;;;6.10;3.33;;;16.70;99.90;;;;;;5110210;27;20104;-82
2022/04/14 11:30:59;;;;;;;;;;;16.80;99.90;;;;;;5119729;27;20093;-87
2022/04/14 11:33:28;;;;;;;6.25;2.35;;;16.80;99.90;;;;;;5111287;28;19923;-88
2022/04/14 11:36:19;;;;;;;8.30;3.05;;;16.90;99.90;;;;;;5119395;28;20062;-89
2022/04/14 11:39:03;;;;;;;6.07;4.07;;;16.90;99.90;;;;;;5103314;28;20654;-81
2022/04/14 11:41:42;;;;;;;8.73;3.17;;;16.90;99.90;;;;;;5097936;28;20089;-86
2022/04/14 11:44:14;;;;;;;6.10;2.97;;;16.90;99.90;;;;;;5107478;27;20046;-79
2022/04/14 11:46:45;;;;;;;4.18;2.85;;;16.90;99.90;;;;;;5109516;28;20349;-80
2022/04/14 11:49:13;;;;;;;7.07;3.78;;;16.90;99.90;;;;;;5088073;28;20052;-82
2022/04/14 11:51:47;;;;;;;7.00;3.08;;;17.10;99.90;;;;;;5097853;28;20122;-80
2022/04/14 11:54:18;;;;;;;7.60;4.20;;;17.40;99.90;;;;;;5093813;28;20032;-80
2022/04/14 11:56:52;;;;;;;6.57;3.63;;;17.30;99.90;;;;;;5090155;28;20113;-82
2022/04/14 11:59:32;;;;;;;10.52;3.50;;;17.40;99.90;;;;;;5088327;28;20055;-81
2022/04/14 12:02:01;;;;;;;7.10;3.40;;;17.30;99.90;;;;;;5089358;28;20040;-81
2022/04/14 12:04:26;;;;;;;8.82;3.45;;;17.10;99.90;;;;;;5107823;28;20048;-83
2022/04/14 12:06:54;;;;;;;7.85;3.97;;;17.00;99.90;;;;;;5104570;28;20367;-83
2022/04/14 12:09:21;;;;;;;5.55;2.58;;;17.20;99.90;;;;;;5098691;28;20043;-78
2022/04/14 12:11:47;;;;;;;4.47;2.47;;;17.20;99.90;;;;;;5102218;28;20509;-82
2022/04/14 12:14:14;;;;;;;5.55;2.95;;;17.30;99.90;;;;;;5090870;28;20059;-82
2022/04/14 12:16:47;;;;;;;7.30;3.08;;;17.40;99.90;;;;;;5096204;28;20044;-82
2022/04/14 12:19:13;;;;;;;4.82;2.50;;;17.30;99.90;;;;;;5072165;28;20536;-81
2022/04/14 12:21:38;;;;;;;5.38;2.28;;;17.30;99.90;;;;;;5109103;28;20044;-76
2022/04/14 12:24:05;;;;;;;11.15;2.17;;;17.20;99.90;;;;;;5112887;27;20040;-84
2022/04/14 12:26:35;;;;;;;4.90;1.92;;;17.20;99.90;;;;;;5097996;28;20143;-83
2022/04/14 12:29:01;;;;;;;6.18;2.47;;;17.20;99.90;;;;;;5089071;28;20037;-83
2022/04/14 12:31:28;;;;;;;5.32;2.05;;;17.00;99.90;;;;;;5117220;27;20046;-83
2022/04/14 12:33:57;;;;;;;5.82;2.65;;;17.10;99.90;;;;;;5108779;28;20082;-84
2022/04/14 12:36:35;;;;;;;7.45;1.90;;;17.10;99.90;;;;;;5087290;28;20133;-83
2022/04/14 12:39:17;;;;;;;7.05;2.92;;;17.30;99.90;;;;;;5088363;28;20402;-85
2022/04/14 12:41:43;;;;;;;8.07;2.28;;;17.70;99.90;;;;;;5104371;28;20164;-82